Golden Blaze — SVAG6 — position and weather

sailwx.info

Track history (hours):
 
Tides and Currents Weather Stations Pressure Air Temp Water Temp Dewpoint Dewpoint Depression Visibility Wind Speed Wind Dir Waves Ship Positions

Golden Blaze

Last reported at 2014-Jul-29 01:34 UTC. Time now 2014-Jul-29 08:43 UTC.
Position N 35°21' E 025°08'.

Length 74 m; draft 3 m.

Type: Ship. MMSI: 241148000.

Date/timePositionNaut miles runAvg speedWind from/ knotsBaromVisibWave heightAir tempDewpointWater temp
2014-Jul-29 01:34N 35°21' E 025°08'0 0.0
2014-Jul-29 00:33N 35°21' E 025°08'0 0.0
2014-Jul-28 19:33N 35°21' E 025°08'12 5.1
2014-Jul-28 17:11N 35°32' E 025°11'1727.1
2014-Jul-28 16:34N 35°49' E 025°14'2727.2
2014-Jul-28 15:34N 36°16' E 025°20'9 8.8
2014-Jul-28 14:33N 36°23' E 025°26'0 0.0
2014-Jul-28 13:29N 36°23' E 025°26'0 0.0
2014-Jul-28 12:26N 36°23' E 025°26'0 0.0
2014-Jul-28 11:33N 36°23' E 025°26'0 0.0
2014-Jul-28 10:34N 36°23' E 025°26'0 0.0
2014-Jul-28 09:32N 36°23' E 025°26'0 0.0
2014-Jul-28 08:33N 36°23' E 025°26'1818.2
2014-Jul-28 07:34N 36°07' E 025°18'2826.6
2014-Jul-28 06:30N 35°39' E 025°13'9 0.6
2014-Jul-27 16:33N 35°48' E 025°14'2727.0
2014-Jul-27 15:33N 36°14' E 025°20'10 9.7
2014-Jul-27 14:34N 36°23' E 025°25'3 2.7
2014-Jul-27 13:25N 36°23' E 025°21'0 0.0
2014-Jul-27 12:31N 36°23' E 025°21'0 0.0
2014-Jul-27 11:33N 36°23' E 025°21'0 0.0
2014-Jul-27 10:30N 36°23' E 025°21'0 0.0
2014-Jul-27 09:13N 36°23' E 025°21'4 5.7
2014-Jul-27 08:31N 36°23' E 025°26'1616.9
2014-Jul-27 07:34N 36°08' E 025°18'2626.2
2014-Jul-27 06:34N 35°43' E 025°13'19 1.3
2014-Jul-26 16:18N 35°58' E 024°60'2026.3
2014-Jul-26 15:34N 36°14' E 025°14'1313.4
2014-Jul-26 14:33N 36°23' E 025°26'2 2.0
2014-Jul-26 13:33N 36°24' E 025°23'0 0.0
2014-Jul-26 12:33N 36°24' E 025°23'0 0.0
2014-Jul-26 11:33N 36°24' E 025°23'0 0.0
2014-Jul-26 10:33N 36°24' E 025°23'0 0.0
2014-Jul-26 09:33N 36°24' E 025°23'2 1.7
2014-Jul-26 08:33N 36°23' E 025°25'1717.1
2014-Jul-26 07:33N 36°11' E 025°11'23 1.6
2014-Jul-25 16:30N 35°48' E 025°15'2627.1
2014-Jul-25 15:34N 36°13' E 025°20'10 9.9
2014-Jul-25 14:33N 36°23' E 025°22'1 0.9
2014-Jul-25 13:33N 36°23' E 025°21'0 0.0
2014-Jul-25 12:32N 36°23' E 025°21'0 0.0
2014-Jul-25 11:33N 36°23' E 025°21'0 0.0
2014-Jul-25 10:33N 36°23' E 025°21'1 0.4
2014-Jul-25 09:09N 36°23' E 025°21'1 2.1
2014-Jul-25 08:34N 36°23' E 025°23'2525.0
2014-Jul-25 07:34N 35°59' E 025°16'2826.2
2014-Jul-25 06:30N 35°31' E 025°11'15 1.1
2014-Jul-24 16:30N 35°46' E 025°12'2526.9
2014-Jul-24 15:34N 36°11' E 025°19'1312.4
2014-Jul-24 14:29N 36°23' E 025°26'4 0.7
2014-Jul-24 09:08N 36°23' E 025°21'3 4.8
2014-Jul-24 08:34N 36°23' E 025°24'2524.6
2014-Jul-24 07:34N 36°00' E 025°14'8 0.5
2014-Jul-23 16:33N 35°54' E 025°08'2524.9
2014-Jul-23 15:33N 36°17' E 025°18'8 7.8
2014-Jul-23 14:28N 36°23' E 025°26'0 0.0
2014-Jul-23 13:24N 36°23' E 025°26'0 0.0
2014-Jul-23 12:30N 36°23' E 025°26'0 0.0
2014-Jul-23 11:12N 36°23' E 025°26'0 0.0
2014-Jul-23 10:28N 36°23' E 025°26'0 0.0
2014-Jul-23 09:04N 36°23' E 025°26'0 0.3
2014-Jul-23 08:33N 36°23' E 025°26'2222.2
2014-Jul-23 07:34N 36°03' E 025°15'2625.6
2014-Jul-23 06:33N 35°38' E 025°07'1817.8
2014-Jul-23 05:33N 35°21' E 025°08'0 0.0
2014-Jul-23 04:26N 35°21' E 025°08'0 0.0
2014-Jul-23 03:32N 35°21' E 025°08'0 0.0
2014-Jul-23 02:33N 35°21' E 025°08'0 0.0
2014-Jul-23 00:33N 35°21' E 025°08'0 0.0
2014-Jul-22 23:29N 35°21' E 025°08'0 0.0
2014-Jul-22 22:31N 35°21' E 025°08'0 0.0
2014-Jul-22 17:11N 35°21' E 025°08'0 0.0
2014-Jul-22 12:32N 35°21' E 025°08'0 0.0
2014-Jul-22 07:30N 35°21' E 025°08'0 0.0
2014-Jul-22 04:32N 35°21' E 025°08'0 0.0
2014-Jul-22 03:33N 35°21' E 025°08'0 0.0
2014-Jul-22 02:22N 35°21' E 025°08'0 0.0
2014-Jul-21 21:26N 35°21' E 025°08'0 0.0
2014-Jul-21 20:30N 35°21' E 025°08'0 0.0
2014-Jul-21 20:14N 35°21' E 025°08'27 7.2
2014-Jul-21 16:32N 35°47' E 025°13'2626.5
2014-Jul-21 15:33N 36°13' E 025°19'1210.1
2014-Jul-21 14:23N 36°23' E 025°26'0 0.0
2014-Jul-21 13:07N 36°23' E 025°26'0 0.0
2014-Jul-21 12:25N 36°23' E 025°26'0 0.0
2014-Jul-21 11:12N 36°23' E 025°26'0 0.0
2014-Jul-21 10:32N 36°23' E 025°26'0 0.0
2014-Jul-21 09:25N 36°23' E 025°26'2 1.9
2014-Jul-21 08:33N 36°23' E 025°24'2624.8
2014-Jul-21 07:32N 35°59' E 025°15'8 0.6
2014-Jul-20 16:25N 35°50' E 025°14'2326.9
2014-Jul-20 15:33N 36°13' E 025°19'1210.8
2014-Jul-20 14:29N 36°23' E 025°26'0 0.0
2014-Jul-20 13:08N 36°23' E 025°26'0 0.0
2014-Jul-20 12:32N 36°23' E 025°26'0 0.0
2014-Jul-20 11:33N 36°23' E 025°26'0 0.0
2014-Jul-20 10:33N 36°23' E 025°26'0 0.0
2014-Jul-20 09:29N 36°23' E 025°26'2 1.9
2014-Jul-20 08:33N 36°23' E 025°23'2322.7
2014-Jul-20 07:33N 36°01' E 025°16'41 3.9
2014-Jul-19 21:07N 35°21' E 025°08'0 0.0
2014-Jul-19 20:11N 35°21' E 025°08'8 9.9
2014-Jul-19 19:25N 35°26' E 025°01'28 9.8
2014-Jul-19 16:31N 35°53' E 024°55'2425.0
2014-Jul-19 15:33N 36°13' E 025°13'1513.9
2014-Jul-19 14:30N 36°23' E 025°26'2 2.2
2014-Jul-19 13:33N 36°24' E 025°23'0 0.0
2014-Jul-19 12:32N 36°24' E 025°23'0 0.0
2014-Jul-19 11:33N 36°24' E 025°23'0 0.0
2014-Jul-19 10:33N 36°24' E 025°23'0 0.0
2014-Jul-19 09:33N 36°24' E 025°23'2 2.0
2014-Jul-19 08:33N 36°23' E 025°26'2322.5
2014-Jul-19 07:34N 36°07' E 025°07'2424.0
2014-Jul-19 06:34N 35°47' E 024°49'  
Track history (hours):
 
Tides and Currents Weather Stations Pressure Air Temp Water Temp Dewpoint Dewpoint Depression Visibility Wind Speed Wind Dir Waves Ship Positions

Golden Blaze

Last reported at 2014-Jul-29 01:34 UTC. Time now 2014-Jul-29 08:43 UTC.
Position N 35°21' E 025°08'.

Length 74 m; draft 3 m.

Type: Ship. MMSI: 241148000.

Date/timePositionNaut miles runAvg speedWind from/ knotsBaromVisibWave heightAir tempDewpointWater temp
2014-Jul-29 01:34N 35°21' E 025°08'0 0.0
2014-Jul-29 00:33N 35°21' E 025°08'0 0.0
2014-Jul-28 19:33N 35°21' E 025°08'12 5.1
2014-Jul-28 17:11N 35°32' E 025°11'1727.1
2014-Jul-28 16:34N 35°49' E 025°14'2727.2
2014-Jul-28 15:34N 36°16' E 025°20'9 8.8
2014-Jul-28 14:33N 36°23' E 025°26'0 0.0
2014-Jul-28 13:29N 36°23' E 025°26'0 0.0
2014-Jul-28 12:26N 36°23' E 025°26'0 0.0
2014-Jul-28 11:33N 36°23' E 025°26'0 0.0
2014-Jul-28 10:34N 36°23' E 025°26'0 0.0
2014-Jul-28 09:32N 36°23' E 025°26'0 0.0
2014-Jul-28 08:33N 36°23' E 025°26'1818.2
2014-Jul-28 07:34N 36°07' E 025°18'2826.6
2014-Jul-28 06:30N 35°39' E 025°13'9 0.6
2014-Jul-27 16:33N 35°48' E 025°14'2727.0
2014-Jul-27 15:33N 36°14' E 025°20'10 9.7
2014-Jul-27 14:34N 36°23' E 025°25'3 2.7
2014-Jul-27 13:25N 36°23' E 025°21'0 0.0
2014-Jul-27 12:31N 36°23' E 025°21'0 0.0
2014-Jul-27 11:33N 36°23' E 025°21'0 0.0
2014-Jul-27 10:30N 36°23' E 025°21'0 0.0
2014-Jul-27 09:13N 36°23' E 025°21'4 5.7
2014-Jul-27 08:31N 36°23' E 025°26'1616.9
2014-Jul-27 07:34N 36°08' E 025°18'2626.2
2014-Jul-27 06:34N 35°43' E 025°13'19 1.3
2014-Jul-26 16:18N 35°58' E 024°60'2026.3
2014-Jul-26 15:34N 36°14' E 025°14'1313.4
2014-Jul-26 14:33N 36°23' E 025°26'2 2.0
2014-Jul-26 13:33N 36°24' E 025°23'0 0.0
2014-Jul-26 12:33N 36°24' E 025°23'0 0.0
2014-Jul-26 11:33N 36°24' E 025°23'0 0.0
2014-Jul-26 10:33N 36°24' E 025°23'0 0.0
2014-Jul-26 09:33N 36°24' E 025°23'2 1.7
2014-Jul-26 08:33N 36°23' E 025°25'1717.1
2014-Jul-26 07:33N 36°11' E 025°11'23 1.6
2014-Jul-25 16:30N 35°48' E 025°15'2627.1
2014-Jul-25 15:34N 36°13' E 025°20'10 9.9
2014-Jul-25 14:33N 36°23' E 025°22'1 0.9
2014-Jul-25 13:33N 36°23' E 025°21'0 0.0
2014-Jul-25 12:32N 36°23' E 025°21'0 0.0
2014-Jul-25 11:33N 36°23' E 025°21'0 0.0
2014-Jul-25 10:33N 36°23' E 025°21'1 0.4
2014-Jul-25 09:09N 36°23' E 025°21'1 2.1
2014-Jul-25 08:34N 36°23' E 025°23'2525.0
2014-Jul-25 07:34N 35°59' E 025°16'2826.2
2014-Jul-25 06:30N 35°31' E 025°11'15 1.1
2014-Jul-24 16:30N 35°46' E 025°12'2526.9
2014-Jul-24 15:34N 36°11' E 025°19'1312.4
2014-Jul-24 14:29N 36°23' E 025°26'4 0.7
2014-Jul-24 09:08N 36°23' E 025°21'3 4.8
2014-Jul-24 08:34N 36°23' E 025°24'2524.6
2014-Jul-24 07:34N 36°00' E 025°14'8 0.5
2014-Jul-23 16:33N 35°54' E 025°08'2524.9
2014-Jul-23 15:33N 36°17' E 025°18'8 7.8
2014-Jul-23 14:28N 36°23' E 025°26'0 0.0
2014-Jul-23 13:24N 36°23' E 025°26'0 0.0
2014-Jul-23 12:30N 36°23' E 025°26'0 0.0
2014-Jul-23 11:12N 36°23' E 025°26'0 0.0
2014-Jul-23 10:28N 36°23' E 025°26'0 0.0
2014-Jul-23 09:04N 36°23' E 025°26'0 0.3
2014-Jul-23 08:33N 36°23' E 025°26'2222.2
2014-Jul-23 07:34N 36°03' E 025°15'2625.6
2014-Jul-23 06:33N 35°38' E 025°07'1817.8
2014-Jul-23 05:33N 35°21' E 025°08'0 0.0
2014-Jul-23 04:26N 35°21' E 025°08'0 0.0
2014-Jul-23 03:32N 35°21' E 025°08'0 0.0
2014-Jul-23 02:33N 35°21' E 025°08'0 0.0
2014-Jul-23 00:33N 35°21' E 025°08'0 0.0
2014-Jul-22 23:29N 35°21' E 025°08'0 0.0
2014-Jul-22 22:31N 35°21' E 025°08'0 0.0
2014-Jul-22 17:11N 35°21' E 025°08'0 0.0
2014-Jul-22 12:32N 35°21' E 025°08'0 0.0
2014-Jul-22 07:30N 35°21' E 025°08'0 0.0
2014-Jul-22 04:32N 35°21' E 025°08'0 0.0
2014-Jul-22 03:33N 35°21' E 025°08'0 0.0
2014-Jul-22 02:22N 35°21' E 025°08'0 0.0
2014-Jul-21 21:26N 35°21' E 025°08'0 0.0
2014-Jul-21 20:30N 35°21' E 025°08'0 0.0
2014-Jul-21 20:14N 35°21' E 025°08'27 7.2
2014-Jul-21 16:32N 35°47' E 025°13'2626.5
2014-Jul-21 15:33N 36°13' E 025°19'1210.1
2014-Jul-21 14:23N 36°23' E 025°26'0 0.0
2014-Jul-21 13:07N 36°23' E 025°26'0 0.0
2014-Jul-21 12:25N 36°23' E 025°26'0 0.0
2014-Jul-21 11:12N 36°23' E 025°26'0 0.0
2014-Jul-21 10:32N 36°23' E 025°26'0 0.0
2014-Jul-21 09:25N 36°23' E 025°26'2 1.9
2014-Jul-21 08:33N 36°23' E 025°24'2624.8
2014-Jul-21 07:32N 35°59' E 025°15'8 0.6
2014-Jul-20 16:25N 35°50' E 025°14'2326.9
2014-Jul-20 15:33N 36°13' E 025°19'1210.8
2014-Jul-20 14:29N 36°23' E 025°26'0 0.0
2014-Jul-20 13:08N 36°23' E 025°26'0 0.0
2014-Jul-20 12:32N 36°23' E 025°26'0 0.0
2014-Jul-20 11:33N 36°23' E 025°26'0 0.0
2014-Jul-20 10:33N 36°23' E 025°26'0 0.0
2014-Jul-20 09:29N 36°23' E 025°26'2 1.9
2014-Jul-20 08:33N 36°23' E 025°23'2322.7
2014-Jul-20 07:33N 36°01' E 025°16'41 3.9
2014-Jul-19 21:07N 35°21' E 025°08'0 0.0
2014-Jul-19 20:11N 35°21' E 025°08'8 9.9
2014-Jul-19 19:25N 35°26' E 025°01'28 9.8
2014-Jul-19 16:31N 35°53' E 024°55'2425.0
2014-Jul-19 15:33N 36°13' E 025°13'1513.9
2014-Jul-19 14:30N 36°23' E 025°26'2 2.2
2014-Jul-19 13:33N 36°24' E 025°23'0 0.0
2014-Jul-19 12:32N 36°24' E 025°23'0 0.0
2014-Jul-19 11:33N 36°24' E 025°23'0 0.0
2014-Jul-19 10:33N 36°24' E 025°23'0 0.0
2014-Jul-19 09:33N 36°24' E 025°23'2 2.0
2014-Jul-19 08:33N 36°23' E 025°26'2322.5
2014-Jul-19 07:34N 36°07' E 025°07'2424.0
2014-Jul-19 06:34N 35°47' E 024°49'  

Dump ship's entire track history